Charter Quote
Worldwide +1-877-727-2538 Call
Select Language Lang
SAFETY RELIABILITY EXPERIENCE

Homestead Arb Airport (KHST) - Jet Charter Services

AIRPORT INFORMATION
ICAOKHST
IATAHST
LOCATIONHomestead, FL, United States
FACILITY TYPEAIRPORT
Runway Length (ft) Width (ft) Surface Type Elevation (ft)
05/23 11200 300 CONC 6.00000

At Paramount Business Jets you can hire chartered private jets to and from Homestead Arb Airport with as little as 4 hours of notice. All flights booked via Paramount Business Jets are operated by certified direct air carriers that meet and exceed the FAA part 135 and 121 protocol or a foreign equivalent safety authority. Furthermore, Paramount Business Jets subscribes to ARGUS for their third party safety checks of operators, aircraft, and crews prior each and every flight to and from Homestead Arb Airport and worldwide.

  • Quote a trip using Homestead Arb Airport or call us 24/7 - 365 days a year at +1-877-727-2538.
Questions? Call +1-877-727-2538

METAR Weather Data at Homestead Arb Airport, KHST, HST

STATIONKHST
OBSERVEDMon Apr 22, 03:56 UTC
NOWMon Apr 22, 04:51 UTC
AGE55 min ago
WINDcalm
VISIBILITY10 miles
CLOUDSclear skies
TEMP63°F (17°C)
DEWPT61°F (16°C)
HUMIDITY94%
BAROMETER1020 hPa (30.13 in Hg)
METARKHST 220356Z AUTO 00000KT 10SM CLR 17/16 A3013 RMK AO2 SLP206 T01740157

Call us on +1-877-727-2538 (24 Hours) to Hire a Private Jet or Get a Quick Quote.

Find Airports Near any Location

Processing
...